sensor_id;sensor_type;location;lat;lon;timestamp;P1;durP1;ratioP1;P2;durP2;ratioP2
69410;SDS011;56604;48.652;9.194;2023-02-28T00:00:15;2.30;;;2.20;;
69410;SDS011;56604;48.652;9.194;2023-02-28T00:02:41;4.83;;;2.30;;
69410;SDS011;56604;48.652;9.194;2023-02-28T00:05:09;2.57;;;1.97;;
69410;SDS011;56604;48.652;9.194;2023-02-28T00:07:35;2.03;;;2.03;;
69410;SDS011;56604;48.652;9.194;2023-02-28T00:10:02;2.93;;;2.70;;
69410;SDS011;56604;48.652;9.194;2023-02-28T00:12:29;2.30;;;2.20;;
69410;SDS011;56604;48.652;9.194;2023-02-28T00:14:54;2.23;;;2.13;;
69410;SDS011;56604;48.652;9.194;2023-02-28T00:17:19;2.53;;;2.33;;
69410;SDS011;56604;48.652;9.194;2023-02-28T00:19:48;1.77;;;1.67;;
69410;SDS011;56604;48.652;9.194;2023-02-28T00:22:15;2.90;;;2.07;;
69410;SDS011;56604;48.652;9.194;2023-02-28T00:24:42;1.70;;;1.60;;
69410;SDS011;56604;48.652;9.194;2023-02-28T00:27:07;3.63;;;2.33;;
69410;SDS011;56604;48.652;9.194;2023-02-28T00:29:32;2.20;;;2.10;;
69410;SDS011;56604;48.652;9.194;2023-02-28T00:31:58;5.70;;;2.73;;
69410;SDS011;56604;48.652;9.194;2023-02-28T00:34:23;2.20;;;2.10;;
69410;SDS011;56604;48.652;9.194;2023-02-28T00:36:48;3.23;;;2.23;;
69410;SDS011;56604;48.652;9.194;2023-02-28T00:39:14;2.53;;;2.33;;
69410;SDS011;56604;48.652;9.194;2023-02-28T00:41:39;2.30;;;2.20;;
69410;SDS011;56604;48.652;9.194;2023-02-28T00:44:05;2.03;;;1.93;;
69410;SDS011;56604;48.652;9.194;2023-02-28T00:46:30;2.27;;;2.17;;
69410;SDS011;56604;48.652;9.194;2023-02-28T00:48:55;2.70;;;2.40;;
69410;SDS011;56604;48.652;9.194;2023-02-28T00:51:21;3.60;;;2.37;;
69410;SDS011;56604;48.652;9.194;2023-02-28T00:53:46;2.23;;;2.13;;
69410;SDS011;56604;48.652;9.194;2023-02-28T00:56:11;2.10;;;2.00;;
69410;SDS011;56604;48.652;9.194;2023-02-28T00:58:36;1.87;;;1.77;;
69410;SDS011;56604;48.652;9.194;2023-02-28T01:01:02;3.70;;;2.63;;
69410;SDS011;56604;48.652;9.194;2023-02-28T01:03:27;2.30;;;2.20;;
69410;SDS011;56604;48.652;9.194;2023-02-28T01:05:53;2.33;;;2.13;;
69410;SDS011;56604;48.652;9.194;2023-02-28T01:08:18;2.90;;;2.70;;
69410;SDS011;56604;48.652;9.194;2023-02-28T01:10:44;2.27;;;2.07;;
69410;SDS011;56604;48.652;9.194;2023-02-28T01:13:10;2.30;;;2.20;;
69410;SDS011;56604;48.652;9.194;2023-02-28T01:15:36;1.60;;;1.60;;
69410;SDS011;56604;48.652;9.194;2023-02-28T01:18:02;2.87;;;1.90;;
69410;SDS011;56604;48.652;9.194;2023-02-28T01:20:27;6.93;;;1.90;;
69410;SDS011;56604;48.652;9.194;2023-02-28T01:22:52;2.13;;;2.03;;
69410;SDS011;56604;48.652;9.194;2023-02-28T01:25:18;2.93;;;2.27;;
69410;SDS011;56604;48.652;9.194;2023-02-28T01:27:43;1.80;;;1.70;;
69410;SDS011;56604;48.652;9.194;2023-02-28T01:30:09;2.20;;;2.07;;
69410;SDS011;56604;48.652;9.194;2023-02-28T01:32:35;2.27;;;2.07;;
69410;SDS011;56604;48.652;9.194;2023-02-28T01:35:01;1.90;;;1.80;;
69410;SDS011;56604;48.652;9.194;2023-02-28T01:37:27;2.27;;;2.17;;
69410;SDS011;56604;48.652;9.194;2023-02-28T01:39:52;2.50;;;2.20;;
69410;SDS011;56604;48.652;9.194;2023-02-28T01:42:17;2.20;;;2.10;;
69410;SDS011;56604;48.652;9.194;2023-02-28T01:47:24;2.70;;;2.50;;
69410;SDS011;56604;48.652;9.194;2023-02-28T01:49:53;2.43;;;2.33;;
69410;SDS011;56604;48.652;9.194;2023-02-28T01:52:18;2.93;;;2.40;;
69410;SDS011;56604;48.652;9.194;2023-02-28T01:54:48;4.70;;;2.07;;
69410;SDS011;56604;48.652;9.194;2023-02-28T01:57:18;2.83;;;2.27;;
69410;SDS011;56604;48.652;9.194;2023-02-28T01:59:51;2.23;;;2.13;;
69410;SDS011;56604;48.652;9.194;2023-02-28T02:02:25;2.20;;;2.10;;
69410;SDS011;56604;48.652;9.194;2023-02-28T02:05:00;3.30;;;2.50;;
69410;SDS011;56604;48.652;9.194;2023-02-28T02:07:31;2.27;;;2.17;;
69410;SDS011;56604;48.652;9.194;2023-02-28T02:10:00;2.20;;;2.03;;
69410;SDS011;56604;48.652;9.194;2023-02-28T02:12:41;3.20;;;2.90;;
69410;SDS011;56604;48.652;9.194;2023-02-28T02:18:10;3.23;;;2.93;;
69410;SDS011;56604;48.652;9.194;2023-02-28T02:20:56;2.70;;;2.50;;
69410;SDS011;56604;48.652;9.194;2023-02-28T02:29:22;2.93;;;2.57;;
69410;SDS011;56604;48.652;9.194;2023-02-28T02:35:15;3.60;;;2.80;;
69410;SDS011;56604;48.652;9.194;2023-02-28T02:37:49;10.40;;;4.77;;
69410;SDS011;56604;48.652;9.194;2023-02-28T02:40:19;19.43;;;3.40;;
69410;SDS011;56604;48.652;9.194;2023-02-28T02:45:28;11.90;;;5.13;;
69410;SDS011;56604;48.652;9.194;2023-02-28T02:48:00;6.70;;;4.20;;
69410;SDS011;56604;48.652;9.194;2023-02-28T02:50:33;8.90;;;4.47;;
69410;SDS011;56604;48.652;9.194;2023-02-28T02:53:05;6.07;;;3.67;;
69410;SDS011;56604;48.652;9.194;2023-02-28T02:55:34;4.67;;;2.57;;
69410;SDS011;56604;48.652;9.194;2023-02-28T02:58:04;4.23;;;3.30;;
69410;SDS011;56604;48.652;9.194;2023-02-28T03:00:39;4.77;;;2.97;;
69410;SDS011;56604;48.652;9.194;2023-02-28T03:03:08;3.17;;;2.80;;
69410;SDS011;56604;48.652;9.194;2023-02-28T03:05:39;3.17;;;2.90;;
69410;SDS011;56604;48.652;9.194;2023-02-28T03:08:09;4.10;;;3.03;;
69410;SDS011;56604;48.652;9.194;2023-02-28T03:18:23;3.73;;;3.33;;
69410;SDS011;56604;48.652;9.194;2023-02-28T03:23:53;3.73;;;3.53;;
69410;SDS011;56604;48.652;9.194;2023-02-28T03:26:27;6.57;;;3.57;;
69410;SDS011;56604;48.652;9.194;2023-02-28T03:29:05;5.93;;;3.20;;
69410;SDS011;56604;48.652;9.194;2023-02-28T03:31:50;3.40;;;3.00;;
69410;SDS011;56604;48.652;9.194;2023-02-28T03:36:56;3.17;;;2.80;;
69410;SDS011;56604;48.652;9.194;2023-02-28T03:39:37;3.53;;;2.90;;
69410;SDS011;56604;48.652;9.194;2023-02-28T03:42:09;3.23;;;3.03;;
69410;SDS011;56604;48.652;9.194;2023-02-28T03:44:41;3.20;;;2.90;;
69410;SDS011;56604;48.652;9.194;2023-02-28T03:47:13;3.30;;;3.00;;
69410;SDS011;56604;48.652;9.194;2023-02-28T03:49:54;4.00;;;2.97;;
69410;SDS011;56604;48.652;9.194;2023-02-28T03:52:25;5.03;;;3.03;;
69410;SDS011;56604;48.652;9.194;2023-02-28T03:54:56;3.20;;;3.00;;
69410;SDS011;56604;48.652;9.194;2023-02-28T03:57:37;2.90;;;2.80;;
69410;SDS011;56604;48.652;9.194;2023-02-28T04:02:49;4.37;;;3.10;;
69410;SDS011;56604;48.652;9.194;2023-02-28T04:05:17;3.87;;;3.53;;
69410;SDS011;56604;48.652;9.194;2023-02-28T04:07:44;5.07;;;3.40;;
69410;SDS011;56604;48.652;9.194;2023-02-28T04:10:09;3.80;;;3.40;;
69410;SDS011;56604;48.652;9.194;2023-02-28T04:12:36;3.30;;;3.10;;
69410;SDS011;56604;48.652;9.194;2023-02-28T04:15:01;4.03;;;3.33;;
69410;SDS011;56604;48.652;9.194;2023-02-28T04:17:26;3.10;;;2.80;;
69410;SDS011;56604;48.652;9.194;2023-02-28T04:19:52;3.80;;;3.50;;
69410;SDS011;56604;48.652;9.194;2023-02-28T04:22:19;4.00;;;3.47;;
69410;SDS011;56604;48.652;9.194;2023-02-28T04:24:44;3.13;;;2.93;;
69410;SDS011;56604;48.652;9.194;2023-02-28T04:27:09;3.53;;;3.20;;
69410;SDS011;56604;48.652;9.194;2023-02-28T04:29:35;3.37;;;3.10;;
69410;SDS011;56604;48.652;9.194;2023-02-28T04:32:01;3.73;;;3.43;;
69410;SDS011;56604;48.652;9.194;2023-02-28T04:34:27;3.80;;;3.60;;
69410;SDS011;56604;48.652;9.194;2023-02-28T04:36:54;3.17;;;2.83;;
69410;SDS011;56604;48.652;9.194;2023-02-28T04:39:22;3.87;;;3.37;;
69410;SDS011;56604;48.652;9.194;2023-02-28T04:41:49;4.03;;;3.63;;
69410;SDS011;56604;48.652;9.194;2023-02-28T04:44:14;5.13;;;4.07;;
69410;SDS011;56604;48.652;9.194;2023-02-28T04:46:40;5.10;;;3.23;;
69410;SDS011;56604;48.652;9.194;2023-02-28T04:49:06;4.57;;;3.97;;
69410;SDS011;56604;48.652;9.194;2023-02-28T04:51:34;4.70;;;3.90;;
69410;SDS011;56604;48.652;9.194;2023-02-28T04:53:59;6.50;;;3.80;;
69410;SDS011;56604;48.652;9.194;2023-02-28T04:56:25;4.07;;;3.77;;
69410;SDS011;56604;48.652;9.194;2023-02-28T04:58:50;3.40;;;3.20;;
69410;SDS011;56604;48.652;9.194;2023-02-28T05:01:19;4.13;;;3.60;;
69410;SDS011;56604;48.652;9.194;2023-02-28T05:03:47;5.53;;;3.90;;
69410;SDS011;56604;48.652;9.194;2023-02-28T05:06:14;4.50;;;4.10;;
69410;SDS011;56604;48.652;9.194;2023-02-28T05:08:39;3.63;;;3.50;;
69410;SDS011;56604;48.652;9.194;2023-02-28T05:11:06;4.37;;;3.97;;
69410;SDS011;56604;48.652;9.194;2023-02-28T05:13:37;4.17;;;3.70;;
69410;SDS011;56604;48.652;9.194;2023-02-28T05:16:02;4.70;;;4.20;;
69410;SDS011;56604;48.652;9.194;2023-02-28T05:18:27;7.57;;;4.70;;
69410;SDS011;56604;48.652;9.194;2023-02-28T05:20:52;11.40;;;3.77;;
69410;SDS011;56604;48.652;9.194;2023-02-28T05:23:18;4.63;;;4.33;;
69410;SDS011;56604;48.652;9.194;2023-02-28T05:25:46;4.73;;;4.07;;
69410;SDS011;56604;48.652;9.194;2023-02-28T05:28:11;4.30;;;4.00;;
69410;SDS011;56604;48.652;9.194;2023-02-28T05:30:36;4.50;;;3.73;;
69410;SDS011;56604;48.652;9.194;2023-02-28T05:33:02;4.73;;;4.33;;
69410;SDS011;56604;48.652;9.194;2023-02-28T05:35:27;4.60;;;4.30;;
69410;SDS011;56604;48.652;9.194;2023-02-28T05:37:52;4.90;;;3.53;;
69410;SDS011;56604;48.652;9.194;2023-02-28T05:40:18;5.57;;;4.50;;
69410;SDS011;56604;48.652;9.194;2023-02-28T05:42:45;9.97;;;4.10;;
69410;SDS011;56604;48.652;9.194;2023-02-28T05:45:11;6.00;;;4.50;;
69410;SDS011;56604;48.652;9.194;2023-02-28T05:47:36;6.30;;;4.07;;
69410;SDS011;56604;48.652;9.194;2023-02-28T05:50:02;6.77;;;4.57;;
69410;SDS011;56604;48.652;9.194;2023-02-28T05:52:28;4.83;;;3.80;;
69410;SDS011;56604;48.652;9.194;2023-02-28T05:54:55;9.70;;;4.70;;
69410;SDS011;56604;48.652;9.194;2023-02-28T05:57:20;4.93;;;4.17;;
69410;SDS011;56604;48.652;9.194;2023-02-28T05:59:46;6.83;;;4.30;;
69410;SDS011;56604;48.652;9.194;2023-02-28T06:02:12;6.80;;;5.13;;
69410;SDS011;56604;48.652;9.194;2023-02-28T06:04:39;12.83;;;4.50;;
69410;SDS011;56604;48.652;9.194;2023-02-28T06:07:06;9.20;;;5.30;;
69410;SDS011;56604;48.652;9.194;2023-02-28T06:09:31;10.50;;;5.37;;
69410;SDS011;56604;48.652;9.194;2023-02-28T06:11:57;6.70;;;5.27;;
69410;SDS011;56604;48.652;9.194;2023-02-28T06:14:24;6.50;;;5.30;;
69410;SDS011;56604;48.652;9.194;2023-02-28T06:16:49;7.60;;;4.60;;
69410;SDS011;56604;48.652;9.194;2023-02-28T06:19:14;4.67;;;4.27;;
69410;SDS011;56604;48.652;9.194;2023-02-28T06:21:40;6.07;;;4.80;;
69410;SDS011;56604;48.652;9.194;2023-02-28T06:24:06;12.43;;;5.77;;
69410;SDS011;56604;48.652;9.194;2023-02-28T06:26:31;9.03;;;5.10;;
69410;SDS011;56604;48.652;9.194;2023-02-28T06:28:57;7.30;;;5.37;;
69410;SDS011;56604;48.652;9.194;2023-02-28T06:31:22;6.37;;;5.00;;
69410;SDS011;56604;48.652;9.194;2023-02-28T06:33:49;8.20;;;5.47;;
69410;SDS011;56604;48.652;9.194;2023-02-28T06:36:15;10.50;;;4.77;;
69410;SDS011;56604;48.652;9.194;2023-02-28T06:38:41;6.90;;;5.67;;
69410;SDS011;56604;48.652;9.194;2023-02-28T06:41:06;7.90;;;6.13;;
69410;SDS011;56604;48.652;9.194;2023-02-28T06:43:39;8.03;;;5.67;;
69410;SDS011;56604;48.652;9.194;2023-02-28T06:46:07;9.17;;;5.10;;
69410;SDS011;56604;48.652;9.194;2023-02-28T06:48:34;9.20;;;5.03;;
69410;SDS011;56604;48.652;9.194;2023-02-28T06:51:07;6.37;;;5.20;;
69410;SDS011;56604;48.652;9.194;2023-02-28T06:53:34;8.53;;;6.60;;
69410;SDS011;56604;48.652;9.194;2023-02-28T06:56:03;5.60;;;5.03;;
69410;SDS011;56604;48.652;9.194;2023-02-28T06:58:30;7.47;;;5.77;;
69410;SDS011;56604;48.652;9.194;2023-02-28T07:00:55;9.90;;;5.70;;
69410;SDS011;56604;48.652;9.194;2023-02-28T07:03:21;8.50;;;5.50;;
69410;SDS011;56604;48.652;9.194;2023-02-28T07:05:46;7.83;;;5.60;;
69410;SDS011;56604;48.652;9.194;2023-02-28T07:08:11;7.87;;;5.53;;
69410;SDS011;56604;48.652;9.194;2023-02-28T07:10:37;7.70;;;5.10;;
69410;SDS011;56604;48.652;9.194;2023-02-28T07:13:03;9.47;;;5.97;;
69410;SDS011;56604;48.652;9.194;2023-02-28T07:15:29;8.80;;;6.13;;
69410;SDS011;56604;48.652;9.194;2023-02-28T07:17:54;6.10;;;5.00;;
69410;SDS011;56604;48.652;9.194;2023-02-28T07:20:21;9.67;;;6.07;;
69410;SDS011;56604;48.652;9.194;2023-02-28T07:22:46;6.10;;;5.40;;
69410;SDS011;56604;48.652;9.194;2023-02-28T07:25:16;9.87;;;5.53;;
69410;SDS011;56604;48.652;9.194;2023-02-28T07:27:42;7.50;;;4.50;;
69410;SDS011;56604;48.652;9.194;2023-02-28T07:30:07;5.80;;;5.17;;
69410;SDS011;56604;48.652;9.194;2023-02-28T07:32:33;10.73;;;6.70;;
69410;SDS011;56604;48.652;9.194;2023-02-28T07:35:02;6.30;;;5.60;;
69410;SDS011;56604;48.652;9.194;2023-02-28T07:37:28;8.83;;;6.20;;
69410;SDS011;56604;48.652;9.194;2023-02-28T07:39:56;9.60;;;5.80;;
69410;SDS011;56604;48.652;9.194;2023-02-28T07:42:21;5.00;;;4.50;;
69410;SDS011;56604;48.652;9.194;2023-02-28T07:44:47;7.37;;;5.90;;
69410;SDS011;56604;48.652;9.194;2023-02-28T07:47:12;7.00;;;5.60;;
69410;SDS011;56604;48.652;9.194;2023-02-28T07:49:37;11.57;;;6.00;;
69410;SDS011;56604;48.652;9.194;2023-02-28T07:52:04;7.93;;;6.00;;
69410;SDS011;56604;48.652;9.194;2023-02-28T07:54:30;6.70;;;5.53;;
69410;SDS011;56604;48.652;9.194;2023-02-28T07:56:55;12.60;;;7.10;;
69410;SDS011;56604;48.652;9.194;2023-02-28T07:59:21;8.20;;;6.67;;
69410;SDS011;56604;48.652;9.194;2023-02-28T08:01:46;7.60;;;5.67;;
69410;SDS011;56604;48.652;9.194;2023-02-28T08:04:11;10.80;;;6.93;;
69410;SDS011;56604;48.652;9.194;2023-02-28T08:06:37;9.30;;;6.40;;
69410;SDS011;56604;48.652;9.194;2023-02-28T08:09:02;8.23;;;5.67;;
69410;SDS011;56604;48.652;9.194;2023-02-28T08:11:27;4.27;;;3.93;;
69410;SDS011;56604;48.652;9.194;2023-02-28T08:13:54;8.17;;;5.97;;
69410;SDS011;56604;48.652;9.194;2023-02-28T08:16:19;11.13;;;6.63;;
69410;SDS011;56604;48.652;9.194;2023-02-28T08:18:47;10.53;;;6.43;;
69410;SDS011;56604;48.652;9.194;2023-02-28T08:21:14;5.97;;;5.37;;
69410;SDS011;56604;48.652;9.194;2023-02-28T08:23:39;9.70;;;6.00;;
69410;SDS011;56604;48.652;9.194;2023-02-28T08:26:04;6.40;;;5.77;;
69410;SDS011;56604;48.652;9.194;2023-02-28T08:28:30;9.93;;;6.07;;
69410;SDS011;56604;48.652;9.194;2023-02-28T08:30:55;8.20;;;6.07;;
69410;SDS011;56604;48.652;9.194;2023-02-28T08:33:21;7.80;;;6.30;;
69410;SDS011;56604;48.652;9.194;2023-02-28T08:35:47;13.13;;;6.07;;
69410;SDS011;56604;48.652;9.194;2023-02-28T08:38:13;8.00;;;6.03;;
69410;SDS011;56604;48.652;9.194;2023-02-28T08:40:38;7.23;;;5.63;;
69410;SDS011;56604;48.652;9.194;2023-02-28T08:43:03;8.70;;;6.70;;
69410;SDS011;56604;48.652;9.194;2023-02-28T08:45:29;10.60;;;6.60;;
69410;SDS011;56604;48.652;9.194;2023-02-28T08:47:54;9.97;;;6.37;;
69410;SDS011;56604;48.652;9.194;2023-02-28T08:50:20;7.47;;;6.00;;
69410;SDS011;56604;48.652;9.194;2023-02-28T08:52:46;19.33;;;6.27;;
69410;SDS011;56604;48.652;9.194;2023-02-28T08:55:12;5.93;;;5.33;;
69410;SDS011;56604;48.652;9.194;2023-02-28T08:57:37;5.00;;;4.43;;
69410;SDS011;56604;48.652;9.194;2023-02-28T09:00:03;6.33;;;4.60;;
69410;SDS011;56604;48.652;9.194;2023-02-28T09:02:29;8.50;;;6.23;;
69410;SDS011;56604;48.652;9.194;2023-02-28T09:04:56;15.63;;;4.97;;
69410;SDS011;56604;48.652;9.194;2023-02-28T09:07:21;7.27;;;5.33;;
69410;SDS011;56604;48.652;9.194;2023-02-28T09:09:46;8.27;;;6.17;;
69410;SDS011;56604;48.652;9.194;2023-02-28T09:12:23;9.83;;;6.23;;
69410;SDS011;56604;48.652;9.194;2023-02-28T09:14:49;6.33;;;5.67;;
69410;SDS011;56604;48.652;9.194;2023-02-28T09:17:15;5.47;;;4.93;;
69410;SDS011;56604;48.652;9.194;2023-02-28T09:19:40;9.40;;;6.03;;
69410;SDS011;56604;48.652;9.194;2023-02-28T09:22:07;7.50;;;5.83;;
69410;SDS011;56604;48.652;9.194;2023-02-28T09:24:32;8.77;;;6.50;;
69410;SDS011;56604;48.652;9.194;2023-02-28T09:26:58;11.23;;;6.17;;
69410;SDS011;56604;48.652;9.194;2023-02-28T09:29:23;12.53;;;7.17;;
69410;SDS011;56604;48.652;9.194;2023-02-28T09:31:48;13.37;;;6.97;;
69410;SDS011;56604;48.652;9.194;2023-02-28T09:34:14;9.20;;;6.40;;
69410;SDS011;56604;48.652;9.194;2023-02-28T09:36:42;8.60;;;5.87;;
69410;SDS011;56604;48.652;9.194;2023-02-28T09:39:08;11.80;;;6.57;;
69410;SDS011;56604;48.652;9.194;2023-02-28T09:41:38;8.80;;;6.10;;
69410;SDS011;56604;48.652;9.194;2023-02-28T09:44:13;9.20;;;6.67;;
69410;SDS011;56604;48.652;9.194;2023-02-28T09:46:51;13.67;;;7.87;;
69410;SDS011;56604;48.652;9.194;2023-02-28T09:49:26;10.53;;;7.10;;
69410;SDS011;56604;48.652;9.194;2023-02-28T09:52:01;10.23;;;6.10;;
69410;SDS011;56604;48.652;9.194;2023-02-28T09:54:34;7.07;;;6.37;;
69410;SDS011;56604;48.652;9.194;2023-02-28T09:57:04;11.10;;;6.97;;
69410;SDS011;56604;48.652;9.194;2023-02-28T09:59:39;14.33;;;6.57;;
69410;SDS011;56604;48.652;9.194;2023-02-28T10:05:23;11.33;;;7.27;;
69410;SDS011;56604;48.652;9.194;2023-02-28T10:10:36;11.03;;;7.50;;
69410;SDS011;56604;48.652;9.194;2023-02-28T10:13:04;10.60;;;5.83;;
69410;SDS011;56604;48.652;9.194;2023-02-28T10:15:37;7.60;;;6.23;;
69410;SDS011;56604;48.652;9.194;2023-02-28T10:18:04;7.77;;;6.13;;
69410;SDS011;56604;48.652;9.194;2023-02-28T10:20:37;10.50;;;6.80;;
69410;SDS011;56604;48.652;9.194;2023-02-28T10:23:09;9.67;;;7.10;;
69410;SDS011;56604;48.652;9.194;2023-02-28T10:25:37;8.90;;;6.60;;
69410;SDS011;56604;48.652;9.194;2023-02-28T10:28:14;9.73;;;6.10;;
69410;SDS011;56604;48.652;9.194;2023-02-28T10:30:42;12.70;;;7.20;;
69410;SDS011;56604;48.652;9.194;2023-02-28T10:33:21;8.13;;;6.10;;
69410;SDS011;56604;48.652;9.194;2023-02-28T10:35:49;9.03;;;6.17;;
69410;SDS011;56604;48.652;9.194;2023-02-28T10:38:37;8.67;;;6.63;;
69410;SDS011;56604;48.652;9.194;2023-02-28T10:44:14;8.03;;;5.97;;
69410;SDS011;56604;48.652;9.194;2023-02-28T10:46:45;8.10;;;6.70;;
69410;SDS011;56604;48.652;9.194;2023-02-28T10:49:12;10.23;;;7.43;;
69410;SDS011;56604;48.652;9.194;2023-02-28T10:51:42;15.10;;;6.07;;
69410;SDS011;56604;48.652;9.194;2023-02-28T10:54:18;8.27;;;7.03;;
69410;SDS011;56604;48.652;9.194;2023-02-28T10:57:04;9.97;;;8.00;;
69410;SDS011;56604;48.652;9.194;2023-02-28T10:59:32;11.10;;;7.03;;
69410;SDS011;56604;48.652;9.194;2023-02-28T11:01:57;14.93;;;7.53;;
69410;SDS011;56604;48.652;9.194;2023-02-28T11:06:58;7.70;;;6.90;;
69410;SDS011;56604;48.652;9.194;2023-02-28T11:09:29;13.30;;;7.67;;
69410;SDS011;56604;48.652;9.194;2023-02-28T11:11:59;11.47;;;7.13;;
69410;SDS011;56604;48.652;9.194;2023-02-28T11:14:31;7.87;;;6.10;;
69410;SDS011;56604;48.652;9.194;2023-02-28T11:17:11;11.30;;;7.07;;
69410;SDS011;56604;48.652;9.194;2023-02-28T11:19:44;11.33;;;8.03;;
69410;SDS011;56604;48.652;9.194;2023-02-28T11:22:15;10.60;;;6.90;;
69410;SDS011;56604;48.652;9.194;2023-02-28T11:24:44;10.33;;;7.00;;
69410;SDS011;56604;48.652;9.194;2023-02-28T11:27:24;16.13;;;8.00;;
69410;SDS011;56604;48.652;9.194;2023-02-28T11:29:55;8.43;;;6.50;;
69410;SDS011;56604;48.652;9.194;2023-02-28T11:32:22;9.30;;;6.83;;
69410;SDS011;56604;48.652;9.194;2023-02-28T11:37:37;8.40;;;6.30;;
69410;SDS011;56604;48.652;9.194;2023-02-28T11:40:13;9.70;;;6.90;;
69410;SDS011;56604;48.652;9.194;2023-02-28T11:42:54;9.30;;;7.23;;
69410;SDS011;56604;48.652;9.194;2023-02-28T11:51:21;10.40;;;7.23;;
69410;SDS011;56604;48.652;9.194;2023-02-28T11:57:03;8.23;;;6.73;;
69410;SDS011;56604;48.652;9.194;2023-02-28T11:59:56;13.70;;;7.20;;
69410;SDS011;56604;48.652;9.194;2023-02-28T12:02:29;10.53;;;6.87;;
69410;SDS011;56604;48.652;9.194;2023-02-28T12:15:53;10.40;;;7.77;;
69410;SDS011;56604;48.652;9.194;2023-02-28T12:27:26;10.23;;;6.80;;
69410;SDS011;56604;48.652;9.194;2023-02-28T12:29:59;15.93;;;7.40;;
69410;SDS011;56604;48.652;9.194;2023-02-28T12:37:36;10.27;;;7.50;;
69410;SDS011;56604;48.652;9.194;2023-02-28T12:40:11;16.90;;;8.77;;
69410;SDS011;56604;48.652;9.194;2023-02-28T12:42:48;15.50;;;7.20;;
69410;SDS011;56604;48.652;9.194;2023-02-28T12:45:20;11.90;;;7.80;;
69410;SDS011;56604;48.652;9.194;2023-02-28T12:47:50;12.40;;;8.00;;
69410;SDS011;56604;48.652;9.194;2023-02-28T12:50:19;8.93;;;7.20;;
69410;SDS011;56604;48.652;9.194;2023-02-28T12:58:22;12.70;;;7.93;;
69410;SDS011;56604;48.652;9.194;2023-02-28T13:09:59;11.80;;;8.40;;
69410;SDS011;56604;48.652;9.194;2023-02-28T13:12:27;14.97;;;7.83;;
69410;SDS011;56604;48.652;9.194;2023-02-28T13:17:48;13.50;;;8.40;;
69410;SDS011;56604;48.652;9.194;2023-02-28T13:20:15;13.00;;;8.60;;
69410;SDS011;56604;48.652;9.194;2023-02-28T13:22:49;15.90;;;8.90;;
69410;SDS011;56604;48.652;9.194;2023-02-28T13:27:58;13.60;;;8.70;;
69410;SDS011;56604;48.652;9.194;2023-02-28T13:33:32;12.87;;;8.20;;
69410;SDS011;56604;48.652;9.194;2023-02-28T13:36:09;10.10;;;7.80;;
69410;SDS011;56604;48.652;9.194;2023-02-28T13:38:48;16.83;;;8.67;;
69410;SDS011;56604;48.652;9.194;2023-02-28T13:46:31;12.47;;;8.33;;
69410;SDS011;56604;48.652;9.194;2023-02-28T13:57:27;12.90;;;8.40;;
69410;SDS011;56604;48.652;9.194;2023-02-28T14:05:42;14.20;;;9.03;;
69410;SDS011;56604;48.652;9.194;2023-02-28T14:08:13;10.60;;;7.80;;
69410;SDS011;56604;48.652;9.194;2023-02-28T14:10:46;18.37;;;9.57;;
69410;SDS011;56604;48.652;9.194;2023-02-28T14:16:10;10.20;;;8.03;;
69410;SDS011;56604;48.652;9.194;2023-02-28T14:18:40;11.33;;;8.13;;
69410;SDS011;56604;48.652;9.194;2023-02-28T14:37:50;12.90;;;8.60;;
69410;SDS011;56604;48.652;9.194;2023-02-28T14:40:37;21.97;;;9.23;;
69410;SDS011;56604;48.652;9.194;2023-02-28T14:43:04;11.50;;;7.90;;
69410;SDS011;56604;48.652;9.194;2023-02-28T14:45:32;14.07;;;8.87;;
69410;SDS011;56604;48.652;9.194;2023-02-28T14:48:02;24.63;;;9.47;;
69410;SDS011;56604;48.652;9.194;2023-02-28T14:50:35;11.27;;;7.90;;
69410;SDS011;56604;48.652;9.194;2023-02-28T14:53:01;12.13;;;8.23;;
69410;SDS011;56604;48.652;9.194;2023-02-28T14:55:31;12.13;;;7.70;;
69410;SDS011;56604;48.652;9.194;2023-02-28T14:58:00;12.93;;;8.37;;
69410;SDS011;56604;48.652;9.194;2023-02-28T15:00:35;16.83;;;9.03;;
69410;SDS011;56604;48.652;9.194;2023-02-28T15:03:17;14.23;;;8.10;;
69410;SDS011;56604;48.652;9.194;2023-02-28T15:05:52;18.43;;;8.87;;
69410;SDS011;56604;48.652;9.194;2023-02-28T15:08:19;18.87;;;7.60;;
69410;SDS011;56604;48.652;9.194;2023-02-28T15:10:52;11.37;;;7.90;;
69410;SDS011;56604;48.652;9.194;2023-02-28T15:13:20;10.70;;;8.17;;
69410;SDS011;56604;48.652;9.194;2023-02-28T15:18:15;20.23;;;8.50;;
69410;SDS011;56604;48.652;9.194;2023-02-28T15:20:48;14.53;;;8.27;;
69410;SDS011;56604;48.652;9.194;2023-02-28T15:23:15;14.67;;;8.73;;
69410;SDS011;56604;48.652;9.194;2023-02-28T15:25:43;19.10;;;9.17;;
69410;SDS011;56604;48.652;9.194;2023-02-28T15:28:11;11.80;;;8.10;;
69410;SDS011;56604;48.652;9.194;2023-02-28T15:30:51;11.00;;;7.90;;
69410;SDS011;56604;48.652;9.194;2023-02-28T15:33:26;12.93;;;8.27;;
69410;SDS011;56604;48.652;9.194;2023-02-28T15:38:39;13.83;;;8.43;;
69410;SDS011;56604;48.652;9.194;2023-02-28T15:41:05;12.57;;;7.50;;
69410;SDS011;56604;48.652;9.194;2023-02-28T15:43:36;10.20;;;7.70;;
69410;SDS011;56604;48.652;9.194;2023-02-28T15:46:03;19.20;;;8.67;;
69410;SDS011;56604;48.652;9.194;2023-02-28T15:48:42;12.63;;;7.90;;
69410;SDS011;56604;48.652;9.194;2023-02-28T15:53:54;12.63;;;8.70;;
69410;SDS011;56604;48.652;9.194;2023-02-28T15:56:26;11.10;;;8.10;;
69410;SDS011;56604;48.652;9.194;2023-02-28T15:58:58;24.27;;;8.27;;
69410;SDS011;56604;48.652;9.194;2023-02-28T16:01:44;15.27;;;7.40;;
69410;SDS011;56604;48.652;9.194;2023-02-28T16:04:17;12.73;;;7.67;;
69410;SDS011;56604;48.652;9.194;2023-02-28T16:06:44;11.33;;;9.03;;
69410;SDS011;56604;48.652;9.194;2023-02-28T16:09:15;9.80;;;7.73;;
69410;SDS011;56604;48.652;9.194;2023-02-28T16:11:45;14.33;;;8.00;;
69410;SDS011;56604;48.652;9.194;2023-02-28T16:14:20;12.97;;;8.67;;
69410;SDS011;56604;48.652;9.194;2023-02-28T16:16:53;14.93;;;8.63;;
69410;SDS011;56604;48.652;9.194;2023-02-28T16:19:20;13.30;;;9.23;;
69410;SDS011;56604;48.652;9.194;2023-02-28T16:21:46;15.77;;;8.80;;
69410;SDS011;56604;48.652;9.194;2023-02-28T16:24:12;21.03;;;8.30;;
69410;SDS011;56604;48.652;9.194;2023-02-28T16:26:41;8.77;;;6.60;;
69410;SDS011;56604;48.652;9.194;2023-02-28T16:29:13;10.20;;;7.37;;
69410;SDS011;56604;48.652;9.194;2023-02-28T16:31:42;12.00;;;7.80;;
69410;SDS011;56604;48.652;9.194;2023-02-28T16:34:07;18.33;;;7.00;;
69410;SDS011;56604;48.652;9.194;2023-02-28T16:36:32;11.97;;;7.93;;
69410;SDS011;56604;48.652;9.194;2023-02-28T16:38:58;14.37;;;8.83;;
69410;SDS011;56604;48.652;9.194;2023-02-28T16:41:24;8.30;;;6.53;;
69410;SDS011;56604;48.652;9.194;2023-02-28T16:43:51;15.13;;;8.20;;
69410;SDS011;56604;48.652;9.194;2023-02-28T16:46:19;13.63;;;8.00;;
69410;SDS011;56604;48.652;9.194;2023-02-28T16:48:45;12.23;;;8.33;;
69410;SDS011;56604;48.652;9.194;2023-02-28T16:51:14;12.60;;;7.90;;
69410;SDS011;56604;48.652;9.194;2023-02-28T16:53:41;10.00;;;6.70;;
69410;SDS011;56604;48.652;9.194;2023-02-28T16:56:11;10.73;;;8.03;;
69410;SDS011;56604;48.652;9.194;2023-02-28T16:58:40;26.40;;;8.90;;
69410;SDS011;56604;48.652;9.194;2023-02-28T17:01:05;18.13;;;7.67;;
69410;SDS011;56604;48.652;9.194;2023-02-28T17:03:30;16.87;;;9.20;;
69410;SDS011;56604;48.652;9.194;2023-02-28T17:05:56;13.27;;;8.20;;
69410;SDS011;56604;48.652;9.194;2023-02-28T17:08:21;12.57;;;8.80;;
69410;SDS011;56604;48.652;9.194;2023-02-28T17:10:46;14.20;;;8.40;;
69410;SDS011;56604;48.652;9.194;2023-02-28T17:13:12;12.97;;;9.00;;
69410;SDS011;56604;48.652;9.194;2023-02-28T17:15:38;15.37;;;9.00;;
69410;SDS011;56604;48.652;9.194;2023-02-28T17:18:04;16.07;;;9.70;;
69410;SDS011;56604;48.652;9.194;2023-02-28T17:20:30;14.67;;;7.97;;
69410;SDS011;56604;48.652;9.194;2023-02-28T17:22:56;14.10;;;9.63;;